createdAt,value
2018-12-29T00:02:19.233Z,0.91
2018-12-29T00:04:46.140Z,0.75
2018-12-29T00:07:12.896Z,0.66
2018-12-29T00:09:39.846Z,1.01
2018-12-29T00:12:06.662Z,1.01
2018-12-29T00:14:33.461Z,1.23
2018-12-29T00:17:00.220Z,1.09
2018-12-29T00:19:26.992Z,0.78
2018-12-29T00:21:53.757Z,0.86
2018-12-29T00:24:20.556Z,0.83
2018-12-29T00:26:47.337Z,0.90
2018-12-29T00:29:14.196Z,0.81
2018-12-29T00:31:40.955Z,0.52
2018-12-29T00:34:07.729Z,0.67
2018-12-29T00:36:34.494Z,0.80
2018-12-29T00:39:01.261Z,0.89
2018-12-29T00:41:28.075Z,1.02
2018-12-29T00:43:54.827Z,1.03
2018-12-29T00:46:21.600Z,1.33
2018-12-29T00:48:48.393Z,0.73
2018-12-29T00:51:15.168Z,0.96
2018-12-29T00:53:41.946Z,0.75
2018-12-29T00:56:08.721Z,0.69
2018-12-29T00:58:35.496Z,0.57
2018-12-29T01:01:02.288Z,0.98
2018-12-29T01:03:29.057Z,1.04
2018-12-29T01:05:55.841Z,1.53
2018-12-29T01:08:22.602Z,1.74
2018-12-29T01:10:49.393Z,1.37
2018-12-29T01:13:16.156Z,1.12
2018-12-29T01:15:42.937Z,1.11
2018-12-29T01:18:09.725Z,0.76
2018-12-29T01:20:36.500Z,1.28
2018-12-29T01:23:03.280Z,1.14
2018-12-29T01:25:30.053Z,1.25
2018-12-29T01:27:56.829Z,1.04
2018-12-29T01:30:23.636Z,0.77
2018-12-29T01:32:50.389Z,0.64
2018-12-29T01:35:17.169Z,0.75
2018-12-29T01:37:44.128Z,1.06
2018-12-29T01:40:10.896Z,0.85
2018-12-29T01:42:37.649Z,0.91
2018-12-29T01:45:04.652Z,0.49
2018-12-29T01:47:31.425Z,0.82
2018-12-29T01:49:58.224Z,0.45
2018-12-29T01:52:25.005Z,0.47
2018-12-29T01:54:51.771Z,0.48
2018-12-29T01:57:18.549Z,0.37
2018-12-29T01:59:45.290Z,0.71
2018-12-29T02:02:12.050Z,0.61
2018-12-29T02:04:38.800Z,0.54
2018-12-29T02:07:05.609Z,0.52
2018-12-29T02:09:33.341Z,0.39
2018-12-29T02:12:00.099Z,0.60
2018-12-29T02:14:26.848Z,0.32
2018-12-29T02:16:53.623Z,0.01
2018-12-29T02:19:20.357Z,0.55
2018-12-29T02:21:47.147Z,0.27
2018-12-29T02:24:13.909Z,0.20
2018-12-29T02:26:40.667Z,0.39
2018-12-29T02:29:07.465Z,0.52
2018-12-29T02:31:34.258Z,0.14
2018-12-29T02:34:01.008Z,0.18
2018-12-29T02:36:27.778Z,0.46
2018-12-29T02:38:54.521Z,0.27
2018-12-29T02:41:21.281Z,0.31
2018-12-29T02:43:48.196Z,0.24
2018-12-29T02:46:14.990Z,0.03
2018-12-29T02:48:41.740Z,0.26
2018-12-29T02:51:08.530Z,0.28
2018-12-29T02:53:35.301Z,-0.03
2018-12-29T02:56:02.157Z,0.09
2018-12-29T02:58:28.918Z,0.43
2018-12-29T03:00:55.659Z,0.39
2018-12-29T03:03:22.420Z,0.25
2018-12-29T03:05:49.202Z,0.48
2018-12-29T03:08:15.961Z,0.58
2018-12-29T03:10:42.704Z,0.26
2018-12-29T03:13:09.527Z,0.19
2018-12-29T03:15:41.422Z,0.04
2018-12-29T03:18:03.037Z,0.07
2018-12-29T03:20:29.778Z,0.32
2018-12-29T03:22:56.541Z,0.36
2018-12-29T03:25:23.308Z,0.53
2018-12-29T03:27:50.118Z,0.83
2018-12-29T03:30:16.882Z,0.88
2018-12-29T03:32:43.675Z,0.71
2018-12-29T03:35:10.425Z,0.53
2018-12-29T03:37:37.168Z,0.32
2018-12-29T03:40:04.544Z,0.47
2018-12-29T03:42:31.306Z,0.15
2018-12-29T03:44:58.070Z,0.15
2018-12-29T03:47:24.817Z,0.55
2018-12-29T03:49:51.570Z,0.37
2018-12-29T03:52:18.334Z,0.77
2018-12-29T03:54:45.077Z,0.29
2018-12-29T03:57:11.837Z,0.16
2018-12-29T03:59:38.596Z,0.10
2018-12-29T04:02:05.332Z,0.25
2018-12-29T04:04:32.121Z,0.13
2018-12-29T04:06:58.874Z,0.23
2018-12-29T04:09:33.236Z,0.28
2018-12-29T04:12:03.952Z,0.25
2018-12-29T04:14:30.776Z,0.19
2018-12-29T04:16:57.528Z,0.14
2018-12-29T04:19:24.306Z,0.06
2018-12-29T04:21:51.056Z,0.33
2018-12-29T04:24:17.828Z,0.54
2018-12-29T04:26:44.572Z,0.03
2018-12-29T04:29:11.348Z,0.13
2018-12-29T04:31:38.095Z,0.11
2018-12-29T04:34:04.856Z,0.12
2018-12-29T04:36:31.606Z,0.10
2018-12-29T04:38:58.392Z,0.07
2018-12-29T04:41:25.149Z,0.12
2018-12-29T04:43:51.913Z,0.15
2018-12-29T04:46:18.681Z,0.21
2018-12-29T04:48:45.436Z,0.19
2018-12-29T04:51:12.225Z,0.15
2018-12-29T04:53:39.029Z,0.13
2018-12-29T04:56:05.794Z,0.33
2018-12-29T04:58:32.616Z,0.53
2018-12-29T05:00:59.334Z,0.29
2018-12-29T05:03:26.079Z,0.66
2018-12-29T05:05:52.872Z,0.49
2018-12-29T05:08:19.658Z,0.39
2018-12-29T05:10:46.396Z,0.41
2018-12-29T05:13:13.156Z,0.49
2018-12-29T05:15:39.948Z,0.42
2018-12-29T05:18:06.700Z,0.26
2018-12-29T05:20:33.471Z,0.49
2018-12-29T05:23:00.242Z,0.21
2018-12-29T05:25:27.018Z,0.13
2018-12-29T05:27:53.845Z,0.27
2018-12-29T05:30:20.654Z,0.25
2018-12-29T05:32:47.448Z,0.37
2018-12-29T05:35:15.302Z,0.28
2018-12-29T05:37:41.021Z,0.22
2018-12-29T05:40:07.854Z,0.14
2018-12-29T05:42:34.590Z,0.10
2018-12-29T05:45:01.358Z,0.04
2018-12-29T05:47:28.156Z,0.08
2018-12-29T05:49:55.322Z,0.23
2018-12-29T05:52:22.061Z,0.17
2018-12-29T05:54:49.172Z,0.25
2018-12-29T05:57:15.922Z,0.31
2018-12-29T05:59:42.680Z,0.31
2018-12-29T06:02:09.546Z,0.50
2018-12-29T06:04:36.292Z,0.56
2018-12-29T06:07:03.200Z,0.57
2018-12-29T06:09:29.962Z,0.52
2018-12-29T06:11:56.721Z,0.77
2018-12-29T06:14:23.476Z,1.06
2018-12-29T06:16:50.208Z,1.49
2018-12-29T06:19:16.976Z,1.24
2018-12-29T06:21:43.728Z,1.50
2018-12-29T06:24:10.496Z,1.46
2018-12-29T06:26:37.252Z,1.08
2018-12-29T06:29:04.032Z,1.11
2018-12-29T06:31:30.828Z,0.90
2018-12-29T06:33:57.595Z,0.76
2018-12-29T06:36:24.388Z,0.96
2018-12-29T06:38:51.149Z,1.12
2018-12-29T06:41:17.903Z,1.03
2018-12-29T06:43:44.660Z,1.05
2018-12-29T06:46:11.392Z,1.32
2018-12-29T06:48:38.185Z,0.73
2018-12-29T06:51:04.940Z,0.54
2018-12-29T06:53:31.693Z,0.57
2018-12-29T06:55:58.448Z,0.62
2018-12-29T06:58:25.205Z,0.84
2018-12-29T07:00:52.600Z,0.76
2018-12-29T07:03:19.505Z,0.55
2018-12-29T07:05:46.276Z,0.72
2018-12-29T07:08:13.057Z,0.55
2018-12-29T07:10:39.817Z,0.59
2018-12-29T07:13:06.612Z,0.66
2018-12-29T07:15:33.377Z,0.55
2018-12-29T07:18:00.145Z,0.82
2018-12-29T07:20:26.927Z,0.80
2018-12-29T07:22:53.727Z,0.79
2018-12-29T07:25:20.513Z,0.78
2018-12-29T07:27:47.371Z,0.97
2018-12-29T07:30:14.151Z,0.83
2018-12-29T07:32:40.899Z,1.05
2018-12-29T07:35:07.719Z,1.09
2018-12-29T07:37:34.497Z,0.76
2018-12-29T07:40:01.296Z,0.86
2018-12-29T07:42:28.040Z,0.90
2018-12-29T07:44:54.831Z,1.14
2018-12-29T07:47:21.614Z,1.07
2018-12-29T07:49:48.585Z,1.03
2018-12-29T07:52:15.377Z,1.08
2018-12-29T07:54:42.141Z,0.90
2018-12-29T07:57:08.908Z,1.16
2018-12-29T07:59:35.712Z,1.34
2018-12-29T08:03:57.153Z,1.15
2018-12-29T08:06:23.930Z,1.29
2018-12-29T08:08:50.708Z,1.20
2018-12-29T08:11:17.489Z,1.19
2018-12-29T08:13:44.273Z,1.25
2018-12-29T08:16:11.091Z,1.29
2018-12-29T08:18:37.913Z,1.43
2018-12-29T08:21:04.689Z,1.65
2018-12-29T08:23:31.466Z,1.73
2018-12-29T08:25:58.236Z,1.51
2018-12-29T08:28:25.081Z,2.12
2018-12-29T08:30:51.887Z,1.86
2018-12-29T08:33:18.776Z,1.69
2018-12-29T08:35:45.562Z,1.71
2018-12-29T08:38:12.414Z,2.17
2018-12-29T08:40:39.194Z,1.98
2018-12-29T08:43:05.991Z,1.56
2018-12-29T08:45:32.769Z,1.34
2018-12-29T08:47:59.538Z,1.70
2018-12-29T08:50:26.337Z,1.54
2018-12-29T08:52:53.115Z,1.38
2018-12-29T08:55:19.910Z,1.46
2018-12-29T08:57:46.688Z,1.36
2018-12-29T09:00:13.501Z,1.37
2018-12-29T09:02:40.277Z,1.29
2018-12-29T09:05:07.074Z,1.50
2018-12-29T09:07:34.666Z,1.45
2018-12-29T09:10:01.481Z,1.68
2018-12-29T09:12:28.241Z,1.58
2018-12-29T09:14:55.085Z,1.87
2018-12-29T09:17:21.869Z,1.74
2018-12-29T09:19:48.672Z,2.18
2018-12-29T09:22:15.462Z,1.82
2018-12-29T09:24:42.251Z,2.18
2018-12-29T09:27:09.024Z,2.14
2018-12-29T09:29:35.833Z,1.74
2018-12-29T09:32:02.732Z,2.06
2018-12-29T09:34:29.640Z,1.92
2018-12-29T09:36:56.439Z,2.17
2018-12-29T09:39:23.208Z,2.25
2018-12-29T09:41:51.373Z,2.14
2018-12-29T09:44:16.815Z,2.28
2018-12-29T09:46:43.642Z,2.15
2018-12-29T09:49:10.437Z,2.58
2018-12-29T09:51:37.313Z,1.94
2018-12-29T09:54:04.093Z,1.94
2018-12-29T09:56:30.907Z,2.11
2018-12-29T09:58:57.670Z,2.48
2018-12-29T10:01:24.438Z,2.48
2018-12-29T10:03:51.219Z,2.58
2018-12-29T10:06:18.074Z,2.79
2018-12-29T10:08:44.854Z,2.13
2018-12-29T10:11:11.650Z,2.41
2018-12-29T10:13:38.442Z,1.93
2018-12-29T10:16:05.314Z,1.85
2018-12-29T10:18:32.120Z,1.97
2018-12-29T10:20:58.897Z,2.34
2018-12-29T10:23:25.708Z,2.70
2018-12-29T10:25:52.517Z,2.69
2018-12-29T10:28:19.309Z,2.59
2018-12-29T10:30:46.104Z,2.48
2018-12-29T10:33:12.883Z,2.64
2018-12-29T10:35:39.713Z,2.36
2018-12-29T10:38:06.595Z,2.69
2018-12-29T10:40:33.392Z,2.41
2018-12-29T10:43:00.165Z,2.61
2018-12-29T10:45:26.964Z,2.30
2018-12-29T10:47:53.716Z,2.51
2018-12-29T10:50:20.487Z,2.67
2018-12-29T10:52:47.248Z,2.42
2018-12-29T10:55:14.136Z,2.30
2018-12-29T10:57:40.919Z,2.30
2018-12-29T11:00:08.782Z,2.51
2018-12-29T11:02:35.733Z,2.51
2018-12-29T11:05:02.499Z,2.90
2018-12-29T11:07:29.285Z,3.03
2018-12-29T11:09:56.078Z,2.91
2018-12-29T11:12:22.856Z,2.48
2018-12-29T11:14:49.731Z,2.49
2018-12-29T11:17:16.586Z,2.92
2018-12-29T11:19:43.425Z,2.86
2018-12-29T11:22:10.216Z,2.54
2018-12-29T11:24:37.520Z,2.68
2018-12-29T11:27:03.808Z,2.64
2018-12-29T11:29:30.570Z,2.64
2018-12-29T11:31:57.396Z,3.07
2018-12-29T11:34:24.174Z,2.42
2018-12-29T11:36:50.930Z,2.06
2018-12-29T11:39:17.743Z,2.23
2018-12-29T11:41:44.560Z,2.26
2018-12-29T11:44:11.352Z,1.97
2018-12-29T11:46:38.157Z,2.06
2018-12-29T11:49:04.934Z,2.32
2018-12-29T11:51:31.724Z,2.42
2018-12-29T11:53:58.517Z,2.21
2018-12-29T11:56:25.361Z,2.44
2018-12-29T11:58:52.170Z,2.23
2018-12-29T12:01:19.105Z,2.44
2018-12-29T12:03:48.426Z,2.25
2018-12-29T12:06:15.297Z,2.15
2018-12-29T12:08:42.069Z,2.18
2018-12-29T12:11:08.853Z,2.09
2018-12-29T12:13:35.696Z,2.44
2018-12-29T12:16:02.491Z,2.43
2018-12-29T12:18:29.301Z,2.52
2018-12-29T12:20:56.086Z,2.34
2018-12-29T12:23:22.998Z,2.37
2018-12-29T12:25:49.998Z,2.74
2018-12-29T12:28:16.835Z,2.29
2018-12-29T12:30:43.626Z,2.60
2018-12-29T12:33:10.433Z,2.50
2018-12-29T12:35:37.194Z,2.55
2018-12-29T12:38:03.993Z,2.44
2018-12-29T12:40:30.879Z,2.57
2018-12-29T12:42:57.737Z,2.66
2018-12-29T12:45:24.525Z,2.62
2018-12-29T12:47:51.378Z,2.60
2018-12-29T12:50:18.161Z,2.29
2018-12-29T12:52:45.067Z,2.66
2018-12-29T12:55:11.814Z,2.59
2018-12-29T12:57:38.614Z,2.59
2018-12-29T13:00:06.989Z,2.63
2018-12-29T13:02:33.845Z,2.78
2018-12-29T13:05:01.674Z,2.99
2018-12-29T13:07:28.470Z,2.64
2018-12-29T13:09:55.241Z,2.58
2018-12-29T13:12:22.085Z,2.87
2018-12-29T13:14:49.169Z,2.79
2018-12-29T13:17:15.960Z,2.86
2018-12-29T13:19:42.738Z,2.92
2018-12-29T13:22:10.172Z,2.83
2018-12-29T13:24:36.357Z,2.56
2018-12-29T13:27:03.147Z,2.56
2018-12-29T13:29:29.950Z,2.63
2018-12-29T13:31:56.741Z,2.82
2018-12-29T13:34:23.539Z,3.00
2018-12-29T13:36:50.316Z,2.81
2018-12-29T13:39:17.138Z,2.90
2018-12-29T13:41:43.913Z,3.22
2018-12-29T13:44:10.809Z,2.97
2018-12-29T13:46:37.613Z,3.01
2018-12-29T13:49:04.427Z,2.67
2018-12-29T13:51:31.226Z,2.62
2018-12-29T13:53:58.102Z,2.66
2018-12-29T13:56:24.878Z,2.40
2018-12-29T13:58:51.747Z,2.60
2018-12-29T14:01:18.628Z,2.45
2018-12-29T14:03:45.399Z,2.37
2018-12-29T14:06:12.156Z,2.43
2018-12-29T14:08:38.998Z,2.39
2018-12-29T14:11:05.777Z,2.28
2018-12-29T14:13:34.215Z,2.36
2018-12-29T14:16:01.064Z,2.45
2018-12-29T14:18:28.284Z,2.44
2018-12-29T14:20:54.636Z,2.38
2018-12-29T14:23:21.396Z,2.40
2018-12-29T14:25:48.169Z,2.36
2018-12-29T14:28:14.920Z,2.82
2018-12-29T14:30:41.671Z,2.90
2018-12-29T14:33:08.444Z,3.01
2018-12-29T14:35:35.184Z,3.04
2018-12-29T14:38:01.933Z,2.98
2018-12-29T14:40:28.681Z,2.83
2018-12-29T14:42:55.440Z,2.94
2018-12-29T14:45:22.188Z,2.92
2018-12-29T14:47:48.989Z,3.08
2018-12-29T14:50:15.732Z,3.07
2018-12-29T14:52:42.788Z,2.62
2018-12-29T14:55:09.237Z,2.64
2018-12-29T14:57:35.972Z,2.62
2018-12-29T15:00:02.787Z,2.51
2018-12-29T15:02:29.512Z,2.78
2018-12-29T15:04:56.277Z,2.50
2018-12-29T15:07:23.012Z,2.63
2018-12-29T15:09:50.133Z,2.58
2018-12-29T15:12:16.881Z,2.98
2018-12-29T15:14:43.733Z,2.67
2018-12-29T15:17:10.501Z,2.82
2018-12-29T15:19:37.260Z,2.81
2018-12-29T15:22:03.988Z,2.91
2018-12-29T15:24:30.749Z,3.01
2018-12-29T15:26:57.497Z,3.09
2018-12-29T15:29:24.299Z,2.96
2018-12-29T15:31:51.029Z,2.92
2018-12-29T15:34:17.780Z,3.22
2018-12-29T15:36:44.527Z,2.79
2018-12-29T15:39:11.284Z,2.76
2018-12-29T15:41:38.023Z,2.91
2018-12-29T15:44:04.780Z,2.65
2018-12-29T15:46:31.522Z,2.63
2018-12-29T15:48:58.292Z,2.85
2018-12-29T15:51:25.044Z,3.09
2018-12-29T15:53:51.808Z,2.91
2018-12-29T15:56:18.548Z,3.14
2018-12-29T15:58:45.324Z,2.82
2018-12-29T16:01:12.088Z,2.84
2018-12-29T16:03:38.845Z,2.60
2018-12-29T16:06:05.595Z,2.52
2018-12-29T16:08:32.348Z,2.47
2018-12-29T16:10:59.096Z,2.58
2018-12-29T16:13:25.832Z,2.70
2018-12-29T16:15:52.591Z,2.90
2018-12-29T16:18:19.356Z,2.65
2018-12-29T16:20:53.112Z,2.61
2018-12-29T16:23:12.983Z,2.42
2018-12-29T16:25:39.805Z,2.45
2018-12-29T16:28:06.709Z,2.42
2018-12-29T16:30:33.370Z,2.57
2018-12-29T16:33:00.059Z,2.67
2018-12-29T16:35:26.800Z,3.05
2018-12-29T16:37:53.548Z,2.98
2018-12-29T16:40:20.316Z,3.23
2018-12-29T16:42:47.895Z,3.14
2018-12-29T16:45:13.837Z,3.21
2018-12-29T16:47:40.560Z,3.08
2018-12-29T16:50:07.652Z,3.16
2018-12-29T16:52:34.386Z,3.14
2018-12-29T16:55:01.146Z,3.17
2018-12-29T16:57:27.920Z,3.12
2018-12-29T16:59:54.664Z,3.10
2018-12-29T17:02:21.404Z,2.82
2018-12-29T17:04:48.180Z,3.04
2018-12-29T17:07:14.932Z,3.04
2018-12-29T17:09:41.697Z,3.20
2018-12-29T17:12:08.448Z,3.11
2018-12-29T17:14:35.208Z,3.21
2018-12-29T17:17:01.932Z,3.25
2018-12-29T17:19:28.706Z,2.94
2018-12-29T17:21:55.449Z,2.89
2018-12-29T17:24:22.205Z,2.79
2018-12-29T17:26:48.973Z,2.89
2018-12-29T17:29:15.725Z,2.79
2018-12-29T17:31:42.494Z,2.72
2018-12-29T17:34:09.341Z,2.94
2018-12-29T17:36:41.879Z,2.77
2018-12-29T17:39:04.040Z,2.80
2018-12-29T17:41:30.790Z,2.84
2018-12-29T17:43:57.541Z,2.85
2018-12-29T17:46:24.392Z,2.79
2018-12-29T17:48:51.129Z,2.81
2018-12-29T17:51:18.037Z,2.91
2018-12-29T17:53:49.163Z,2.74
2018-12-29T17:56:11.536Z,3.02
2018-12-29T17:58:38.283Z,2.94
2018-12-29T18:01:05.049Z,2.93
2018-12-29T18:03:31.801Z,2.78
2018-12-29T18:05:58.568Z,2.86
2018-12-29T18:08:25.308Z,2.93
2018-12-29T18:10:52.069Z,3.13
2018-12-29T18:13:18.820Z,2.76
2018-12-29T18:15:45.577Z,2.49
2018-12-29T18:18:12.323Z,2.52
2018-12-29T18:20:39.088Z,2.45
2018-12-29T18:23:05.824Z,2.62
2018-12-29T18:25:32.576Z,2.70
2018-12-29T18:27:59.334Z,2.73
2018-12-29T18:30:26.092Z,2.50
2018-12-29T18:32:52.827Z,2.74
2018-12-29T18:35:19.565Z,2.61
2018-12-29T18:37:46.353Z,2.53
2018-12-29T18:40:13.092Z,2.68
2018-12-29T18:42:39.861Z,2.63
2018-12-29T18:45:06.612Z,2.59
2018-12-29T18:47:33.374Z,2.88
2018-12-29T18:50:00.210Z,3.02
2018-12-29T18:52:26.873Z,2.65
2018-12-29T18:54:53.693Z,2.71
2018-12-29T18:57:20.493Z,2.64
2018-12-29T18:59:47.229Z,2.64
2018-12-29T19:02:14.009Z,2.73
2018-12-29T19:04:40.749Z,2.62
2018-12-29T19:07:07.513Z,2.61
2018-12-29T19:09:34.256Z,2.59
2018-12-29T19:12:01.033Z,2.67
2018-12-29T19:14:27.789Z,2.69
2018-12-29T19:16:54.541Z,2.77
2018-12-29T19:19:21.288Z,2.71
2018-12-29T19:21:48.072Z,3.02
2018-12-29T19:24:14.804Z,3.01
2018-12-29T19:26:41.578Z,2.80
2018-12-29T19:29:08.317Z,2.81
2018-12-29T19:31:35.072Z,2.81
2018-12-29T19:34:01.828Z,2.74
2018-12-29T19:36:28.607Z,2.86
2018-12-29T19:38:55.348Z,2.87
2018-12-29T19:41:22.113Z,3.00
2018-12-29T19:43:48.968Z,2.72
2018-12-29T19:46:16.025Z,2.78
2018-12-29T19:48:43.106Z,2.76
2018-12-29T19:51:09.857Z,2.62
2018-12-29T19:53:36.601Z,2.64
2018-12-29T19:56:03.352Z,2.74
2018-12-29T19:58:30.121Z,2.93
2018-12-29T20:00:56.850Z,3.02
2018-12-29T20:03:23.643Z,2.84
2018-12-29T20:05:50.465Z,2.64
2018-12-29T20:08:17.220Z,2.62
2018-12-29T20:10:44.008Z,2.54
2018-12-29T20:13:10.776Z,2.46
2018-12-29T20:15:37.524Z,2.50
2018-12-29T20:18:04.286Z,2.59
2018-12-29T20:20:31.046Z,2.50
2018-12-29T20:22:57.797Z,2.35
2018-12-29T20:25:24.536Z,2.52
2018-12-29T20:27:51.289Z,2.39
2018-12-29T20:30:18.038Z,2.34
2018-12-29T20:32:44.812Z,2.33
2018-12-29T20:35:11.549Z,2.33
2018-12-29T20:37:38.310Z,2.31
2018-12-29T20:40:05.084Z,2.33
2018-12-29T20:42:31.858Z,2.29
2018-12-29T20:44:58.597Z,2.37
2018-12-29T20:47:25.368Z,2.37
2018-12-29T20:49:52.110Z,2.41
2018-12-29T20:52:18.877Z,2.47
2018-12-29T20:54:45.625Z,2.41
2018-12-29T20:57:12.696Z,2.33
2018-12-29T20:59:39.436Z,2.47
2018-12-29T21:02:06.192Z,2.59
2018-12-29T21:04:32.950Z,2.46
2018-12-29T21:06:59.693Z,2.58
2018-12-29T21:09:26.475Z,2.61
2018-12-29T21:11:53.222Z,2.74
2018-12-29T21:14:20.012Z,2.74
2018-12-29T21:16:46.749Z,2.88
2018-12-29T21:19:13.529Z,2.80
2018-12-29T21:21:40.265Z,3.06
2018-12-29T21:24:12.185Z,3.04
2018-12-29T21:26:33.768Z,3.08
2018-12-29T21:29:01.792Z,2.99
2018-12-29T21:31:28.432Z,3.17
2018-12-29T21:33:55.189Z,3.16
2018-12-29T21:36:21.950Z,2.84
2018-12-29T21:38:48.693Z,2.61
2018-12-29T21:41:15.453Z,2.71
2018-12-29T21:43:42.224Z,2.63
2018-12-29T21:46:08.976Z,2.81
2018-12-29T21:48:35.757Z,2.53
2018-12-29T21:51:02.569Z,2.49
2018-12-29T21:53:29.333Z,2.48
2018-12-29T21:55:56.072Z,2.38
2018-12-29T21:58:23.524Z,2.32
2018-12-29T22:00:50.240Z,2.40
2018-12-29T22:03:17.008Z,2.36
2018-12-29T22:05:43.748Z,2.34
2018-12-29T22:08:10.496Z,2.41
2018-12-29T22:10:37.232Z,2.42
2018-12-29T22:13:03.994Z,2.43
2018-12-29T22:15:30.780Z,2.43
2018-12-29T22:17:57.646Z,2.54
2018-12-29T22:20:24.396Z,2.54
2018-12-29T22:22:51.148Z,2.58
2018-12-29T22:25:17.896Z,2.61
2018-12-29T22:27:44.644Z,2.60
2018-12-29T22:30:11.413Z,2.63
2018-12-29T22:32:38.163Z,2.80
2018-12-29T22:35:04.937Z,2.74
2018-12-29T22:37:31.692Z,2.70
2018-12-29T22:39:58.456Z,2.80
2018-12-29T22:42:25.205Z,2.83
2018-12-29T22:44:51.952Z,3.02
2018-12-29T22:47:18.705Z,2.95
2018-12-29T22:49:45.476Z,2.83
2018-12-29T22:52:12.215Z,2.62
2018-12-29T22:54:38.968Z,2.58
2018-12-29T22:57:05.728Z,2.58
2018-12-29T22:59:32.500Z,2.76
2018-12-29T23:01:59.239Z,2.77
2018-12-29T23:04:26.003Z,2.71
2018-12-29T23:06:52.752Z,2.67
2018-12-29T23:09:19.508Z,2.89
2018-12-29T23:11:46.249Z,3.03
2018-12-29T23:14:13.035Z,2.79
2018-12-29T23:16:39.736Z,2.62
2018-12-29T23:19:06.512Z,2.68
2018-12-29T23:21:33.362Z,2.83
2018-12-29T23:24:00.130Z,2.66
2018-12-29T23:26:26.803Z,2.78
2018-12-29T23:28:53.521Z,2.93
2018-12-29T23:31:20.272Z,2.74
2018-12-29T23:33:47.021Z,2.75
2018-12-29T23:36:13.792Z,2.83
2018-12-29T23:38:40.550Z,2.74
2018-12-29T23:41:07.320Z,2.61
2018-12-29T23:43:34.061Z,2.70
2018-12-29T23:46:00.820Z,2.98
2018-12-29T23:48:27.574Z,2.84
2018-12-29T23:51:05.072Z,2.79
2018-12-29T23:53:21.200Z,2.63
2018-12-29T23:55:47.860Z,2.90
2018-12-29T23:58:14.610Z,2.82
